sensor_id;sensor_type;location;lat;lon;timestamp;P1;durP1;ratioP1;P2;durP2;ratioP2
84303;SDS011;74469;52.520;16.998;2023-12-28T00:03:06;20.40;;;9.20;;
84303;SDS011;74469;52.520;16.998;2023-12-28T00:08:08;21.30;;;10.00;;
84303;SDS011;74469;52.520;16.998;2023-12-28T00:13:11;17.30;;;8.90;;
84303;SDS011;74469;52.520;16.998;2023-12-28T00:18:14;19.60;;;9.40;;
84303;SDS011;74469;52.520;16.998;2023-12-28T00:23:17;24.00;;;9.20;;
84303;SDS011;74469;52.520;16.998;2023-12-28T00:28:20;17.30;;;7.50;;
84303;SDS011;74469;52.520;16.998;2023-12-28T00:33:22;14.50;;;8.00;;
84303;SDS011;74469;52.520;16.998;2023-12-28T00:38:25;27.40;;;10.40;;
84303;SDS011;74469;52.520;16.998;2023-12-28T00:43:28;18.90;;;7.70;;
84303;SDS011;74469;52.520;16.998;2023-12-28T00:48:30;15.70;;;7.50;;
84303;SDS011;74469;52.520;16.998;2023-12-28T00:53:33;19.80;;;7.90;;
84303;SDS011;74469;52.520;16.998;2023-12-28T00:58:38;19.80;;;7.80;;
84303;SDS011;74469;52.520;16.998;2023-12-28T01:03:42;19.80;;;8.40;;
84303;SDS011;74469;52.520;16.998;2023-12-28T01:08:44;18.30;;;7.40;;
84303;SDS011;74469;52.520;16.998;2023-12-28T01:13:47;16.60;;;8.30;;
84303;SDS011;74469;52.520;16.998;2023-12-28T01:18:50;17.90;;;7.30;;
84303;SDS011;74469;52.520;16.998;2023-12-28T01:23:53;15.80;;;6.50;;
84303;SDS011;74469;52.520;16.998;2023-12-28T01:28:56;14.10;;;7.00;;
84303;SDS011;74469;52.520;16.998;2023-12-28T01:33:59;17.70;;;6.80;;
84303;SDS011;74469;52.520;16.998;2023-12-28T01:39:02;18.30;;;7.20;;
84303;SDS011;74469;52.520;16.998;2023-12-28T01:44:05;16.10;;;7.40;;
84303;SDS011;74469;52.520;16.998;2023-12-28T01:49:08;16.70;;;7.20;;
84303;SDS011;74469;52.520;16.998;2023-12-28T01:54:11;15.40;;;6.90;;
84303;SDS011;74469;52.520;16.998;2023-12-28T01:59:13;13.90;;;5.50;;
84303;SDS011;74469;52.520;16.998;2023-12-28T02:04:16;11.60;;;5.70;;
84303;SDS011;74469;52.520;16.998;2023-12-28T02:09:19;13.10;;;5.90;;
84303;SDS011;74469;52.520;16.998;2023-12-28T02:14:22;17.80;;;6.70;;
84303;SDS011;74469;52.520;16.998;2023-12-28T02:19:28;10.80;;;5.90;;
84303;SDS011;74469;52.520;16.998;2023-12-28T02:30:18;10.90;;;4.30;;
84303;SDS011;74469;52.520;16.998;2023-12-28T02:35:41;17.70;;;6.50;;
84303;SDS011;74469;52.520;16.998;2023-12-28T02:40:45;9.60;;;4.50;;
84303;SDS011;74469;52.520;16.998;2023-12-28T02:45:49;16.40;;;6.30;;
84303;SDS011;74469;52.520;16.998;2023-12-28T02:50:52;11.40;;;5.80;;
84303;SDS011;74469;52.520;16.998;2023-12-28T02:55:55;15.80;;;7.10;;
84303;SDS011;74469;52.520;16.998;2023-12-28T03:00:57;13.50;;;6.10;;
84303;SDS011;74469;52.520;16.998;2023-12-28T03:06:00;11.00;;;5.30;;
84303;SDS011;74469;52.520;16.998;2023-12-28T03:11:03;14.30;;;5.90;;
84303;SDS011;74469;52.520;16.998;2023-12-28T03:16:06;17.80;;;7.40;;
84303;SDS011;74469;52.520;16.998;2023-12-28T03:21:09;13.20;;;5.70;;
84303;SDS011;74469;52.520;16.998;2023-12-28T03:26:12;9.20;;;5.10;;
84303;SDS011;74469;52.520;16.998;2023-12-28T03:31:15;10.20;;;5.40;;
84303;SDS011;74469;52.520;16.998;2023-12-28T03:36:18;12.70;;;6.00;;
84303;SDS011;74469;52.520;16.998;2023-12-28T03:41:22;12.70;;;6.20;;
84303;SDS011;74469;52.520;16.998;2023-12-28T03:46:24;12.90;;;6.20;;
84303;SDS011;74469;52.520;16.998;2023-12-28T03:51:28;18.10;;;5.90;;
84303;SDS011;74469;52.520;16.998;2023-12-28T03:56:31;13.20;;;4.60;;
84303;SDS011;74469;52.520;16.998;2023-12-28T04:01:35;11.00;;;5.10;;
84303;SDS011;74469;52.520;16.998;2023-12-28T04:06:38;10.50;;;5.00;;
84303;SDS011;74469;52.520;16.998;2023-12-28T04:11:40;13.20;;;5.20;;
84303;SDS011;74469;52.520;16.998;2023-12-28T04:16:44;8.90;;;4.70;;
84303;SDS011;74469;52.520;16.998;2023-12-28T04:21:47;13.10;;;5.10;;
84303;SDS011;74469;52.520;16.998;2023-12-28T04:26:49;12.50;;;6.20;;
84303;SDS011;74469;52.520;16.998;2023-12-28T04:31:52;9.10;;;4.90;;
84303;SDS011;74469;52.520;16.998;2023-12-28T04:36:55;10.20;;;5.20;;
84303;SDS011;74469;52.520;16.998;2023-12-28T04:41:57;15.10;;;5.90;;
84303;SDS011;74469;52.520;16.998;2023-12-28T04:47:00;15.30;;;6.60;;
84303;SDS011;74469;52.520;16.998;2023-12-28T04:52:04;12.30;;;4.40;;
84303;SDS011;74469;52.520;16.998;2023-12-28T04:57:07;12.70;;;5.70;;
84303;SDS011;74469;52.520;16.998;2023-12-28T05:02:12;10.80;;;5.00;;
84303;SDS011;74469;52.520;16.998;2023-12-28T05:07:15;12.50;;;5.50;;
84303;SDS011;74469;52.520;16.998;2023-12-28T05:12:17;9.20;;;4.80;;
84303;SDS011;74469;52.520;16.998;2023-12-28T05:17:20;10.10;;;5.00;;
84303;SDS011;74469;52.520;16.998;2023-12-28T05:22:23;8.70;;;4.20;;
84303;SDS011;74469;52.520;16.998;2023-12-28T05:27:26;9.20;;;4.70;;
84303;SDS011;74469;52.520;16.998;2023-12-28T05:32:28;10.90;;;4.40;;
84303;SDS011;74469;52.520;16.998;2023-12-28T05:37:31;8.50;;;4.90;;
84303;SDS011;74469;52.520;16.998;2023-12-28T05:42:34;10.10;;;4.60;;
84303;SDS011;74469;52.520;16.998;2023-12-28T05:47:36;11.80;;;5.00;;
84303;SDS011;74469;52.520;16.998;2023-12-28T05:52:39;7.70;;;3.50;;
84303;SDS011;74469;52.520;16.998;2023-12-28T05:57:41;10.50;;;4.80;;
84303;SDS011;74469;52.520;16.998;2023-12-28T06:02:44;8.50;;;4.60;;
84303;SDS011;74469;52.520;16.998;2023-12-28T06:07:48;15.70;;;4.50;;
84303;SDS011;74469;52.520;16.998;2023-12-28T06:12:51;8.00;;;3.80;;
84303;SDS011;74469;52.520;16.998;2023-12-28T06:17:54;9.00;;;4.40;;
84303;SDS011;74469;52.520;16.998;2023-12-28T06:22:57;6.00;;;3.40;;
84303;SDS011;74469;52.520;16.998;2023-12-28T06:27:59;6.40;;;3.60;;
84303;SDS011;74469;52.520;16.998;2023-12-28T06:33:02;7.30;;;3.40;;
84303;SDS011;74469;52.520;16.998;2023-12-28T06:38:05;7.80;;;3.50;;
84303;SDS011;74469;52.520;16.998;2023-12-28T06:43:08;10.00;;;3.60;;
84303;SDS011;74469;52.520;16.998;2023-12-28T06:48:10;7.80;;;3.30;;
84303;SDS011;74469;52.520;16.998;2023-12-28T06:53:13;7.00;;;4.00;;
84303;SDS011;74469;52.520;16.998;2023-12-28T06:58:16;4.90;;;3.30;;
84303;SDS011;74469;52.520;16.998;2023-12-28T07:03:18;5.60;;;2.80;;
84303;SDS011;74469;52.520;16.998;2023-12-28T07:08:21;6.90;;;3.60;;
84303;SDS011;74469;52.520;16.998;2023-12-28T07:13:24;5.90;;;3.10;;
84303;SDS011;74469;52.520;16.998;2023-12-28T07:18:27;5.50;;;3.00;;
84303;SDS011;74469;52.520;16.998;2023-12-28T07:23:30;4.90;;;2.50;;
84303;SDS011;74469;52.520;16.998;2023-12-28T07:28:33;6.50;;;2.90;;
84303;SDS011;74469;52.520;16.998;2023-12-28T07:33:36;5.40;;;3.50;;
84303;SDS011;74469;52.520;16.998;2023-12-28T07:38:39;7.30;;;3.30;;
84303;SDS011;74469;52.520;16.998;2023-12-28T07:43:41;5.40;;;1.80;;
84303;SDS011;74469;52.520;16.998;2023-12-28T07:48:44;4.10;;;2.60;;
84303;SDS011;74469;52.520;16.998;2023-12-28T07:53:47;6.60;;;2.50;;
84303;SDS011;74469;52.520;16.998;2023-12-28T07:58:50;5.00;;;1.80;;
84303;SDS011;74469;52.520;16.998;2023-12-28T08:03:53;3.50;;;2.00;;
84303;SDS011;74469;52.520;16.998;2023-12-28T08:08:56;4.70;;;2.20;;
84303;SDS011;74469;52.520;16.998;2023-12-28T08:13:58;6.60;;;2.10;;
84303;SDS011;74469;52.520;16.998;2023-12-28T08:19:01;4.00;;;1.90;;
84303;SDS011;74469;52.520;16.998;2023-12-28T08:24:04;3.30;;;1.80;;
84303;SDS011;74469;52.520;16.998;2023-12-28T08:29:07;4.70;;;1.70;;
84303;SDS011;74469;52.520;16.998;2023-12-28T08:34:10;3.20;;;2.20;;
84303;SDS011;74469;52.520;16.998;2023-12-28T08:39:13;7.50;;;2.60;;
84303;SDS011;74469;52.520;16.998;2023-12-28T08:44:15;4.50;;;2.60;;
84303;SDS011;74469;52.520;16.998;2023-12-28T08:49:18;4.40;;;2.10;;
84303;SDS011;74469;52.520;16.998;2023-12-28T08:54:21;3.70;;;2.20;;
84303;SDS011;74469;52.520;16.998;2023-12-28T08:59:23;5.60;;;2.50;;
84303;SDS011;74469;52.520;16.998;2023-12-28T09:04:26;3.00;;;1.90;;
84303;SDS011;74469;52.520;16.998;2023-12-28T09:09:29;4.40;;;2.30;;
84303;SDS011;74469;52.520;16.998;2023-12-28T09:14:31;5.50;;;2.80;;
84303;SDS011;74469;52.520;16.998;2023-12-28T09:19:34;4.30;;;3.10;;
84303;SDS011;74469;52.520;16.998;2023-12-28T09:24:37;4.90;;;3.10;;
84303;SDS011;74469;52.520;16.998;2023-12-28T09:29:40;3.10;;;2.30;;
84303;SDS011;74469;52.520;16.998;2023-12-28T09:34:43;3.50;;;2.30;;
84303;SDS011;74469;52.520;16.998;2023-12-28T09:39:45;5.10;;;2.80;;
84303;SDS011;74469;52.520;16.998;2023-12-28T09:44:48;4.80;;;2.30;;
84303;SDS011;74469;52.520;16.998;2023-12-28T09:49:51;4.50;;;2.70;;
84303;SDS011;74469;52.520;16.998;2023-12-28T09:54:54;4.90;;;2.80;;
84303;SDS011;74469;52.520;16.998;2023-12-28T09:59:56;6.20;;;3.10;;
84303;SDS011;74469;52.520;16.998;2023-12-28T10:05:00;7.40;;;3.50;;
84303;SDS011;74469;52.520;16.998;2023-12-28T10:10:03;6.30;;;4.20;;
84303;SDS011;74469;52.520;16.998;2023-12-28T10:15:07;9.70;;;4.40;;
84303;SDS011;74469;52.520;16.998;2023-12-28T10:20:09;7.40;;;3.70;;
84303;SDS011;74469;52.520;16.998;2023-12-28T10:25:12;9.90;;;3.90;;
84303;SDS011;74469;52.520;16.998;2023-12-28T10:30:15;5.60;;;3.40;;
84303;SDS011;74469;52.520;16.998;2023-12-28T10:35:18;6.90;;;3.20;;
84303;SDS011;74469;52.520;16.998;2023-12-28T10:40:21;7.50;;;3.70;;
84303;SDS011;74469;52.520;16.998;2023-12-28T10:45:24;8.40;;;3.00;;
84303;SDS011;74469;52.520;16.998;2023-12-28T10:50:29;8.00;;;3.60;;
84303;SDS011;74469;52.520;16.998;2023-12-28T10:55:34;5.60;;;3.60;;
84303;SDS011;74469;52.520;16.998;2023-12-28T11:00:41;6.80;;;3.40;;
84303;SDS011;74469;52.520;16.998;2023-12-28T11:05:48;5.70;;;3.50;;
84303;SDS011;74469;52.520;16.998;2023-12-28T11:10:52;4.20;;;2.70;;
84303;SDS011;74469;52.520;16.998;2023-12-28T11:15:55;5.90;;;3.30;;
84303;SDS011;74469;52.520;16.998;2023-12-28T11:20:58;7.40;;;3.20;;
84303;SDS011;74469;52.520;16.998;2023-12-28T11:26:01;6.10;;;3.00;;
84303;SDS011;74469;52.520;16.998;2023-12-28T11:31:04;4.50;;;3.00;;
84303;SDS011;74469;52.520;16.998;2023-12-28T11:36:10;5.20;;;2.80;;
84303;SDS011;74469;52.520;16.998;2023-12-28T11:41:15;6.30;;;3.10;;
84303;SDS011;74469;52.520;16.998;2023-12-28T11:46:20;7.50;;;3.20;;
84303;SDS011;74469;52.520;16.998;2023-12-28T11:51:23;9.50;;;3.60;;
84303;SDS011;74469;52.520;16.998;2023-12-28T11:56:26;8.00;;;2.90;;
84303;SDS011;74469;52.520;16.998;2023-12-28T12:01:29;3.60;;;2.30;;
84303;SDS011;74469;52.520;16.998;2023-12-28T12:06:31;6.90;;;3.10;;
84303;SDS011;74469;52.520;16.998;2023-12-28T12:11:34;6.30;;;3.10;;
84303;SDS011;74469;52.520;16.998;2023-12-28T12:16:39;5.80;;;3.10;;
84303;SDS011;74469;52.520;16.998;2023-12-28T12:21:42;6.00;;;3.10;;
84303;SDS011;74469;52.520;16.998;2023-12-28T12:26:46;7.30;;;3.50;;
84303;SDS011;74469;52.520;16.998;2023-12-28T12:31:49;10.00;;;3.90;;
84303;SDS011;74469;52.520;16.998;2023-12-28T12:36:52;8.90;;;3.20;;
84303;SDS011;74469;52.520;16.998;2023-12-28T12:41:56;5.30;;;3.80;;
84303;SDS011;74469;52.520;16.998;2023-12-28T12:46:59;5.00;;;3.40;;
84303;SDS011;74469;52.520;16.998;2023-12-28T12:52:02;6.10;;;3.70;;
84303;SDS011;74469;52.520;16.998;2023-12-28T12:57:05;7.70;;;3.70;;
84303;SDS011;74469;52.520;16.998;2023-12-28T13:02:08;6.20;;;3.90;;
84303;SDS011;74469;52.520;16.998;2023-12-28T13:07:11;9.40;;;4.60;;
84303;SDS011;74469;52.520;16.998;2023-12-28T13:12:13;12.90;;;6.30;;
84303;SDS011;74469;52.520;16.998;2023-12-28T13:17:16;7.60;;;4.30;;
84303;SDS011;74469;52.520;16.998;2023-12-28T13:22:19;6.60;;;4.30;;
84303;SDS011;74469;52.520;16.998;2023-12-28T13:27:22;7.10;;;4.00;;
84303;SDS011;74469;52.520;16.998;2023-12-28T13:32:26;8.30;;;3.60;;
84303;SDS011;74469;52.520;16.998;2023-12-28T13:37:29;4.80;;;2.80;;
84303;SDS011;74469;52.520;16.998;2023-12-28T13:42:31;6.30;;;3.30;;
84303;SDS011;74469;52.520;16.998;2023-12-28T13:47:34;8.70;;;4.40;;
84303;SDS011;74469;52.520;16.998;2023-12-28T13:52:37;7.40;;;3.90;;
84303;SDS011;74469;52.520;16.998;2023-12-28T13:57:39;5.70;;;3.30;;
84303;SDS011;74469;52.520;16.998;2023-12-28T14:02:43;6.80;;;3.40;;
84303;SDS011;74469;52.520;16.998;2023-12-28T14:07:46;8.10;;;3.60;;
84303;SDS011;74469;52.520;16.998;2023-12-28T14:12:48;7.70;;;4.40;;
84303;SDS011;74469;52.520;16.998;2023-12-28T14:17:52;7.70;;;3.80;;
84303;SDS011;74469;52.520;16.998;2023-12-28T14:22:56;6.50;;;3.40;;
84303;SDS011;74469;52.520;16.998;2023-12-28T14:27:59;9.70;;;4.50;;
84303;SDS011;74469;52.520;16.998;2023-12-28T14:33:02;7.20;;;4.00;;
84303;SDS011;74469;52.520;16.998;2023-12-28T14:38:05;10.80;;;4.80;;
84303;SDS011;74469;52.520;16.998;2023-12-28T14:43:10;6.90;;;4.00;;
84303;SDS011;74469;52.520;16.998;2023-12-28T14:48:13;9.30;;;5.20;;
84303;SDS011;74469;52.520;16.998;2023-12-28T14:53:16;8.10;;;4.00;;
84303;SDS011;74469;52.520;16.998;2023-12-28T14:58:19;7.00;;;5.40;;
84303;SDS011;74469;52.520;16.998;2023-12-28T15:03:24;5.50;;;4.10;;
84303;SDS011;74469;52.520;16.998;2023-12-28T15:08:27;8.70;;;3.90;;
84303;SDS011;74469;52.520;16.998;2023-12-28T15:13:30;9.00;;;4.70;;
84303;SDS011;74469;52.520;16.998;2023-12-28T15:18:33;9.60;;;5.50;;
84303;SDS011;74469;52.520;16.998;2023-12-28T15:23:36;7.80;;;4.40;;
84303;SDS011;74469;52.520;16.998;2023-12-28T15:28:40;10.10;;;4.90;;
84303;SDS011;74469;52.520;16.998;2023-12-28T15:33:42;7.40;;;4.00;;
84303;SDS011;74469;52.520;16.998;2023-12-28T15:38:45;6.90;;;3.90;;
84303;SDS011;74469;52.520;16.998;2023-12-28T15:45:29;11.00;;;4.00;;
84303;SDS011;74469;52.520;16.998;2023-12-28T15:50:33;7.50;;;4.30;;
84303;SDS011;74469;52.520;16.998;2023-12-28T15:55:36;9.30;;;4.10;;
84303;SDS011;74469;52.520;16.998;2023-12-28T16:00:39;9.20;;;4.50;;
84303;SDS011;74469;52.520;16.998;2023-12-28T16:05:42;8.60;;;3.70;;
84303;SDS011;74469;52.520;16.998;2023-12-28T16:10:45;7.30;;;3.60;;
84303;SDS011;74469;52.520;16.998;2023-12-28T16:15:47;9.10;;;4.20;;
84303;SDS011;74469;52.520;16.998;2023-12-28T16:20:51;10.50;;;5.10;;
84303;SDS011;74469;52.520;16.998;2023-12-28T16:25:54;9.60;;;5.70;;
84303;SDS011;74469;52.520;16.998;2023-12-28T16:30:57;10.30;;;4.60;;
84303;SDS011;74469;52.520;16.998;2023-12-28T16:36:00;9.50;;;5.10;;
84303;SDS011;74469;52.520;16.998;2023-12-28T16:41:03;8.10;;;4.80;;
84303;SDS011;74469;52.520;16.998;2023-12-28T16:46:07;10.30;;;4.90;;
84303;SDS011;74469;52.520;16.998;2023-12-28T16:51:10;10.20;;;5.50;;
84303;SDS011;74469;52.520;16.998;2023-12-28T16:56:13;13.20;;;5.50;;
84303;SDS011;74469;52.520;16.998;2023-12-28T17:01:17;11.50;;;6.00;;
84303;SDS011;74469;52.520;16.998;2023-12-28T17:06:20;10.00;;;5.50;;
84303;SDS011;74469;52.520;16.998;2023-12-28T17:11:23;11.30;;;6.50;;
84303;SDS011;74469;52.520;16.998;2023-12-28T17:16:26;10.80;;;5.20;;
84303;SDS011;74469;52.520;16.998;2023-12-28T17:21:32;7.80;;;4.40;;
84303;SDS011;74469;52.520;16.998;2023-12-28T17:26:41;13.30;;;6.40;;
84303;SDS011;74469;52.520;16.998;2023-12-28T17:31:50;9.70;;;5.50;;
84303;SDS011;74469;52.520;16.998;2023-12-28T17:36:54;11.70;;;5.50;;
84303;SDS011;74469;52.520;16.998;2023-12-28T17:41:57;10.40;;;5.50;;
84303;SDS011;74469;52.520;16.998;2023-12-28T17:47:02;15.10;;;6.40;;
84303;SDS011;74469;52.520;16.998;2023-12-28T17:52:09;8.90;;;6.00;;
84303;SDS011;74469;52.520;16.998;2023-12-28T17:57:13;14.60;;;6.30;;
84303;SDS011;74469;52.520;16.998;2023-12-28T18:02:16;14.50;;;5.70;;
84303;SDS011;74469;52.520;16.998;2023-12-28T18:07:20;10.00;;;4.50;;
84303;SDS011;74469;52.520;16.998;2023-12-28T18:12:23;11.00;;;5.00;;
84303;SDS011;74469;52.520;16.998;2023-12-28T18:17:25;6.90;;;4.40;;
84303;SDS011;74469;52.520;16.998;2023-12-28T18:22:28;10.90;;;5.50;;
84303;SDS011;74469;52.520;16.998;2023-12-28T18:27:31;9.20;;;4.90;;
84303;SDS011;74469;52.520;16.998;2023-12-28T18:32:33;9.70;;;5.00;;
84303;SDS011;74469;52.520;16.998;2023-12-28T18:37:37;12.80;;;5.60;;
84303;SDS011;74469;52.520;16.998;2023-12-28T18:42:41;14.80;;;6.60;;
84303;SDS011;74469;52.520;16.998;2023-12-28T18:47:44;11.00;;;4.60;;
84303;SDS011;74469;52.520;16.998;2023-12-28T18:52:48;10.90;;;5.90;;
84303;SDS011;74469;52.520;16.998;2023-12-28T18:57:51;10.20;;;5.20;;
84303;SDS011;74469;52.520;16.998;2023-12-28T19:02:54;14.70;;;6.30;;
84303;SDS011;74469;52.520;16.998;2023-12-28T19:07:59;15.90;;;6.20;;
84303;SDS011;74469;52.520;16.998;2023-12-28T19:13:02;10.00;;;5.40;;
84303;SDS011;74469;52.520;16.998;2023-12-28T19:18:05;10.20;;;4.80;;
84303;SDS011;74469;52.520;16.998;2023-12-28T19:23:08;11.00;;;5.40;;
84303;SDS011;74469;52.520;16.998;2023-12-28T19:28:10;12.00;;;5.60;;
84303;SDS011;74469;52.520;16.998;2023-12-28T19:33:13;11.70;;;5.30;;
84303;SDS011;74469;52.520;16.998;2023-12-28T19:38:16;8.80;;;5.00;;
84303;SDS011;74469;52.520;16.998;2023-12-28T19:43:19;12.20;;;5.50;;
84303;SDS011;74469;52.520;16.998;2023-12-28T19:48:23;10.20;;;4.50;;
84303;SDS011;74469;52.520;16.998;2023-12-28T19:53:26;9.60;;;5.10;;
84303;SDS011;74469;52.520;16.998;2023-12-28T19:58:30;10.70;;;4.80;;
84303;SDS011;74469;52.520;16.998;2023-12-28T20:03:33;11.40;;;5.40;;
84303;SDS011;74469;52.520;16.998;2023-12-28T20:08:35;8.90;;;4.80;;
84303;SDS011;74469;52.520;16.998;2023-12-28T20:13:38;12.30;;;6.20;;
84303;SDS011;74469;52.520;16.998;2023-12-28T20:18:41;8.70;;;5.60;;
84303;SDS011;74469;52.520;16.998;2023-12-28T20:23:44;9.50;;;5.20;;
84303;SDS011;74469;52.520;16.998;2023-12-28T20:28:47;10.20;;;5.00;;
84303;SDS011;74469;52.520;16.998;2023-12-28T20:33:51;13.30;;;7.20;;
84303;SDS011;74469;52.520;16.998;2023-12-28T20:38:53;9.00;;;6.00;;
84303;SDS011;74469;52.520;16.998;2023-12-28T20:43:56;8.80;;;4.30;;
84303;SDS011;74469;52.520;16.998;2023-12-28T20:48:59;12.30;;;5.50;;
84303;SDS011;74469;52.520;16.998;2023-12-28T20:54:01;8.40;;;5.00;;
84303;SDS011;74469;52.520;16.998;2023-12-28T20:59:05;8.00;;;4.30;;
84303;SDS011;74469;52.520;16.998;2023-12-28T21:04:07;9.60;;;5.20;;
84303;SDS011;74469;52.520;16.998;2023-12-28T21:09:10;8.70;;;4.80;;
84303;SDS011;74469;52.520;16.998;2023-12-28T21:14:13;9.90;;;5.80;;
84303;SDS011;74469;52.520;16.998;2023-12-28T21:19:17;9.30;;;4.80;;
84303;SDS011;74469;52.520;16.998;2023-12-28T21:24:19;10.40;;;5.60;;
84303;SDS011;74469;52.520;16.998;2023-12-28T21:29:23;7.30;;;4.30;;
84303;SDS011;74469;52.520;16.998;2023-12-28T21:34:26;7.80;;;4.60;;
84303;SDS011;74469;52.520;16.998;2023-12-28T21:39:29;11.20;;;5.00;;
84303;SDS011;74469;52.520;16.998;2023-12-28T21:44:34;11.00;;;4.90;;
84303;SDS011;74469;52.520;16.998;2023-12-28T21:49:37;9.20;;;4.90;;
84303;SDS011;74469;52.520;16.998;2023-12-28T21:54:40;8.20;;;4.80;;
84303;SDS011;74469;52.520;16.998;2023-12-28T21:59:43;7.00;;;4.30;;
84303;SDS011;74469;52.520;16.998;2023-12-28T22:04:45;9.50;;;4.30;;
84303;SDS011;74469;52.520;16.998;2023-12-28T22:09:48;10.10;;;5.30;;
84303;SDS011;74469;52.520;16.998;2023-12-28T22:14:51;10.10;;;5.30;;
84303;SDS011;74469;52.520;16.998;2023-12-28T22:19:54;12.40;;;5.00;;
84303;SDS011;74469;52.520;16.998;2023-12-28T22:24:57;8.30;;;4.80;;
84303;SDS011;74469;52.520;16.998;2023-12-28T22:30:00;9.00;;;5.20;;
84303;SDS011;74469;52.520;16.998;2023-12-28T22:35:02;9.30;;;4.10;;
84303;SDS011;74469;52.520;16.998;2023-12-28T22:40:07;9.80;;;5.30;;
84303;SDS011;74469;52.520;16.998;2023-12-28T22:45:10;10.30;;;5.00;;
84303;SDS011;74469;52.520;16.998;2023-12-28T22:50:14;8.70;;;4.10;;
84303;SDS011;74469;52.520;16.998;2023-12-28T22:55:16;9.50;;;4.90;;
84303;SDS011;74469;52.520;16.998;2023-12-28T23:00:19;8.10;;;5.00;;
84303;SDS011;74469;52.520;16.998;2023-12-28T23:05:28;9.90;;;4.90;;
84303;SDS011;74469;52.520;16.998;2023-12-28T23:10:31;12.20;;;4.20;;
84303;SDS011;74469;52.520;16.998;2023-12-28T23:15:34;7.20;;;4.00;;
84303;SDS011;74469;52.520;16.998;2023-12-28T23:20:37;6.10;;;3.50;;
84303;SDS011;74469;52.520;16.998;2023-12-28T23:25:42;6.20;;;4.00;;
84303;SDS011;74469;52.520;16.998;2023-12-28T23:30:48;7.10;;;4.30;;
84303;SDS011;74469;52.520;16.998;2023-12-28T23:35:54;5.60;;;3.20;;
84303;SDS011;74469;52.520;16.998;2023-12-28T23:40:57;10.00;;;4.10;;
84303;SDS011;74469;52.520;16.998;2023-12-28T23:46:00;6.80;;;3.70;;
84303;SDS011;74469;52.520;16.998;2023-12-28T23:56:15;5.40;;;3.60;;
